sensor_id;sensor_type;location;lat;lon;timestamp;P1;durP1;ratioP1;P2;durP2;ratioP2
64885;SDS011;51514;52.206;5.114;2023-08-30T00:00:06;3.20;;;2.20;;
64885;SDS011;51514;52.206;5.114;2023-08-30T00:02:32;3.90;;;2.25;;
64885;SDS011;51514;52.206;5.114;2023-08-30T00:05:00;4.38;;;2.42;;
64885;SDS011;51514;52.206;5.114;2023-08-30T00:07:26;3.40;;;2.40;;
64885;SDS011;51514;52.206;5.114;2023-08-30T00:09:51;3.20;;;2.13;;
64885;SDS011;51514;52.206;5.114;2023-08-30T00:12:16;5.20;;;2.38;;
64885;SDS011;51514;52.206;5.114;2023-08-30T00:14:42;2.95;;;2.00;;
64885;SDS011;51514;52.206;5.114;2023-08-30T00:17:07;3.45;;;2.13;;
64885;SDS011;51514;52.206;5.114;2023-08-30T00:19:33;3.22;;;2.05;;
64885;SDS011;51514;52.206;5.114;2023-08-30T00:21:58;3.10;;;2.30;;
64885;SDS011;51514;52.206;5.114;2023-08-30T00:24:23;3.47;;;2.35;;
64885;SDS011;51514;52.206;5.114;2023-08-30T00:26:49;3.42;;;2.22;;
64885;SDS011;51514;52.206;5.114;2023-08-30T00:29:14;3.42;;;2.20;;
64885;SDS011;51514;52.206;5.114;2023-08-30T00:31:39;3.60;;;2.00;;
64885;SDS011;51514;52.206;5.114;2023-08-30T00:34:05;2.55;;;2.08;;
64885;SDS011;51514;52.206;5.114;2023-08-30T00:36:30;2.97;;;2.28;;
64885;SDS011;51514;52.206;5.114;2023-08-30T00:38:56;2.35;;;1.98;;
64885;SDS011;51514;52.206;5.114;2023-08-30T00:41:21;3.92;;;2.30;;
64885;SDS011;51514;52.206;5.114;2023-08-30T00:43:46;3.35;;;2.00;;
64885;SDS011;51514;52.206;5.114;2023-08-30T00:46:12;2.92;;;2.00;;
64885;SDS011;51514;52.206;5.114;2023-08-30T00:48:38;3.42;;;2.28;;
64885;SDS011;51514;52.206;5.114;2023-08-30T00:51:04;3.13;;;2.17;;
64885;SDS011;51514;52.206;5.114;2023-08-30T00:53:30;3.10;;;2.00;;
64885;SDS011;51514;52.206;5.114;2023-08-30T00:55:55;3.45;;;2.35;;
64885;SDS011;51514;52.206;5.114;2023-08-30T00:58:20;2.90;;;2.05;;
64885;SDS011;51514;52.206;5.114;2023-08-30T01:00:46;3.05;;;2.13;;
64885;SDS011;51514;52.206;5.114;2023-08-30T01:03:12;4.05;;;2.05;;
64885;SDS011;51514;52.206;5.114;2023-08-30T01:05:38;3.42;;;2.03;;
64885;SDS011;51514;52.206;5.114;2023-08-30T01:08:03;3.90;;;2.40;;
64885;SDS011;51514;52.206;5.114;2023-08-30T01:10:36;3.70;;;1.98;;
64885;SDS011;51514;52.206;5.114;2023-08-30T01:13:09;2.05;;;1.80;;
64885;SDS011;51514;52.206;5.114;2023-08-30T01:15:40;3.08;;;2.15;;
64885;SDS011;51514;52.206;5.114;2023-08-30T01:18:08;2.70;;;1.90;;
64885;SDS011;51514;52.206;5.114;2023-08-30T01:20:36;2.30;;;1.90;;
64885;SDS011;51514;52.206;5.114;2023-08-30T01:23:10;3.67;;;2.50;;
64885;SDS011;51514;52.206;5.114;2023-08-30T01:26:01;3.65;;;2.38;;
64885;SDS011;51514;52.206;5.114;2023-08-30T01:28:34;2.85;;;2.08;;
64885;SDS011;51514;52.206;5.114;2023-08-30T01:31:02;3.13;;;1.98;;
64885;SDS011;51514;52.206;5.114;2023-08-30T01:33:29;2.70;;;1.90;;
64885;SDS011;51514;52.206;5.114;2023-08-30T01:35:56;2.70;;;2.10;;
64885;SDS011;51514;52.206;5.114;2023-08-30T01:38:26;2.70;;;2.22;;
64885;SDS011;51514;52.206;5.114;2023-08-30T01:40:53;2.70;;;2.13;;
64885;SDS011;51514;52.206;5.114;2023-08-30T01:43:19;3.40;;;2.05;;
64885;SDS011;51514;52.206;5.114;2023-08-30T01:45:47;3.05;;;2.10;;
64885;SDS011;51514;52.206;5.114;2023-08-30T01:48:15;3.20;;;2.15;;
64885;SDS011;51514;52.206;5.114;2023-08-30T01:50:43;3.95;;;2.20;;
64885;SDS011;51514;52.206;5.114;2023-08-30T01:53:10;2.65;;;1.73;;
64885;SDS011;51514;52.206;5.114;2023-08-30T01:55:38;3.70;;;2.20;;
64885;SDS011;51514;52.206;5.114;2023-08-30T01:58:03;2.72;;;2.03;;
64885;SDS011;51514;52.206;5.114;2023-08-30T02:00:30;4.25;;;2.08;;
64885;SDS011;51514;52.206;5.114;2023-08-30T02:02:56;3.55;;;2.35;;
64885;SDS011;51514;52.206;5.114;2023-08-30T02:05:22;2.92;;;1.92;;
64885;SDS011;51514;52.206;5.114;2023-08-30T02:10:37;3.42;;;1.90;;
64885;SDS011;51514;52.206;5.114;2023-08-30T02:13:06;3.30;;;2.10;;
64885;SDS011;51514;52.206;5.114;2023-08-30T02:15:35;3.35;;;2.28;;
64885;SDS011;51514;52.206;5.114;2023-08-30T02:18:03;3.08;;;1.90;;
64885;SDS011;51514;52.206;5.114;2023-08-30T02:20:30;2.60;;;2.00;;
64885;SDS011;51514;52.206;5.114;2023-08-30T02:22:59;2.95;;;2.17;;
64885;SDS011;51514;52.206;5.114;2023-08-30T02:25:25;3.60;;;2.40;;
64885;SDS011;51514;52.206;5.114;2023-08-30T02:27:50;3.25;;;2.15;;
64885;SDS011;51514;52.206;5.114;2023-08-30T02:30:16;3.00;;;2.10;;
64885;SDS011;51514;52.206;5.114;2023-08-30T02:32:41;3.58;;;2.17;;
64885;SDS011;51514;52.206;5.114;2023-08-30T02:35:07;3.42;;;2.17;;
64885;SDS011;51514;52.206;5.114;2023-08-30T02:37:32;3.65;;;2.42;;
64885;SDS011;51514;52.206;5.114;2023-08-30T02:39:58;2.47;;;1.90;;
64885;SDS011;51514;52.206;5.114;2023-08-30T02:42:23;3.30;;;1.95;;
64885;SDS011;51514;52.206;5.114;2023-08-30T02:44:49;2.97;;;2.15;;
64885;SDS011;51514;52.206;5.114;2023-08-30T02:47:15;3.92;;;2.63;;
64885;SDS011;51514;52.206;5.114;2023-08-30T02:49:40;4.22;;;2.45;;
64885;SDS011;51514;52.206;5.114;2023-08-30T02:52:06;3.45;;;2.17;;
64885;SDS011;51514;52.206;5.114;2023-08-30T02:54:31;3.53;;;2.47;;
64885;SDS011;51514;52.206;5.114;2023-08-30T02:56:56;3.08;;;2.35;;
64885;SDS011;51514;52.206;5.114;2023-08-30T02:59:22;2.83;;;2.08;;
64885;SDS011;51514;52.206;5.114;2023-08-30T03:01:47;3.50;;;2.30;;
64885;SDS011;51514;52.206;5.114;2023-08-30T03:04:12;3.33;;;2.17;;
64885;SDS011;51514;52.206;5.114;2023-08-30T03:06:38;3.80;;;2.20;;
64885;SDS011;51514;52.206;5.114;2023-08-30T03:09:03;3.25;;;2.20;;
64885;SDS011;51514;52.206;5.114;2023-08-30T03:11:31;2.80;;;2.00;;
64885;SDS011;51514;52.206;5.114;2023-08-30T03:13:57;3.17;;;2.25;;
64885;SDS011;51514;52.206;5.114;2023-08-30T03:16:22;4.30;;;2.25;;
64885;SDS011;51514;52.206;5.114;2023-08-30T03:18:47;4.05;;;2.10;;
64885;SDS011;51514;52.206;5.114;2023-08-30T03:21:13;2.92;;;2.15;;
64885;SDS011;51514;52.206;5.114;2023-08-30T03:23:39;2.63;;;2.22;;
64885;SDS011;51514;52.206;5.114;2023-08-30T03:28:34;2.92;;;2.00;;
64885;SDS011;51514;52.206;5.114;2023-08-30T03:31:00;3.78;;;2.47;;
64885;SDS011;51514;52.206;5.114;2023-08-30T03:33:25;3.78;;;2.40;;
64885;SDS011;51514;52.206;5.114;2023-08-30T03:35:50;2.78;;;2.25;;
64885;SDS011;51514;52.206;5.114;2023-08-30T03:38:16;3.28;;;2.63;;
64885;SDS011;51514;52.206;5.114;2023-08-30T03:40:41;2.50;;;1.80;;
64885;SDS011;51514;52.206;5.114;2023-08-30T03:43:07;3.45;;;2.42;;
64885;SDS011;51514;52.206;5.114;2023-08-30T03:45:36;2.88;;;1.95;;
64885;SDS011;51514;52.206;5.114;2023-08-30T03:50:27;3.30;;;2.15;;
64885;SDS011;51514;52.206;5.114;2023-08-30T03:52:52;4.00;;;2.20;;
64885;SDS011;51514;52.206;5.114;2023-08-30T03:55:17;3.38;;;2.20;;
64885;SDS011;51514;52.206;5.114;2023-08-30T03:57:43;3.10;;;2.10;;
64885;SDS011;51514;52.206;5.114;2023-08-30T04:00:08;3.33;;;2.13;;
64885;SDS011;51514;52.206;5.114;2023-08-30T04:02:36;3.13;;;2.17;;
64885;SDS011;51514;52.206;5.114;2023-08-30T04:05:01;5.38;;;2.45;;
64885;SDS011;51514;52.206;5.114;2023-08-30T04:07:26;2.00;;;1.60;;
64885;SDS011;51514;52.206;5.114;2023-08-30T04:09:52;3.33;;;2.10;;
64885;SDS011;51514;52.206;5.114;2023-08-30T04:12:17;3.38;;;2.40;;
64885;SDS011;51514;52.206;5.114;2023-08-30T04:14:42;3.30;;;2.40;;
64885;SDS011;51514;52.206;5.114;2023-08-30T04:17:07;3.00;;;1.85;;
64885;SDS011;51514;52.206;5.114;2023-08-30T04:19:33;3.22;;;2.38;;
64885;SDS011;51514;52.206;5.114;2023-08-30T04:21:58;2.70;;;2.08;;
64885;SDS011;51514;52.206;5.114;2023-08-30T04:24:23;3.08;;;2.17;;
64885;SDS011;51514;52.206;5.114;2023-08-30T04:26:49;3.28;;;2.15;;
64885;SDS011;51514;52.206;5.114;2023-08-30T04:29:16;3.58;;;2.20;;
64885;SDS011;51514;52.206;5.114;2023-08-30T04:31:43;2.97;;;2.05;;
64885;SDS011;51514;52.206;5.114;2023-08-30T04:34:08;3.50;;;2.30;;
64885;SDS011;51514;52.206;5.114;2023-08-30T04:36:34;3.47;;;2.22;;
64885;SDS011;51514;52.206;5.114;2023-08-30T04:38:59;3.70;;;2.30;;
64885;SDS011;51514;52.206;5.114;2023-08-30T04:41:24;3.00;;;2.33;;
64885;SDS011;51514;52.206;5.114;2023-08-30T04:43:50;4.75;;;2.08;;
64885;SDS011;51514;52.206;5.114;2023-08-30T04:46:15;3.95;;;2.10;;
64885;SDS011;51514;52.206;5.114;2023-08-30T04:48:41;2.95;;;2.10;;
64885;SDS011;51514;52.206;5.114;2023-08-30T04:51:06;3.90;;;2.50;;
64885;SDS011;51514;52.206;5.114;2023-08-30T04:53:31;3.47;;;2.50;;
64885;SDS011;51514;52.206;5.114;2023-08-30T04:55:57;3.67;;;2.42;;
64885;SDS011;51514;52.206;5.114;2023-08-30T04:58:22;2.55;;;2.13;;
64885;SDS011;51514;52.206;5.114;2023-08-30T05:00:47;2.70;;;2.10;;
64885;SDS011;51514;52.206;5.114;2023-08-30T05:03:13;3.97;;;2.55;;
64885;SDS011;51514;52.206;5.114;2023-08-30T05:05:38;3.92;;;2.40;;
64885;SDS011;51514;52.206;5.114;2023-08-30T05:08:04;3.85;;;2.88;;
64885;SDS011;51514;52.206;5.114;2023-08-30T05:10:29;2.80;;;2.15;;
64885;SDS011;51514;52.206;5.114;2023-08-30T05:12:55;4.22;;;2.17;;
64885;SDS011;51514;52.206;5.114;2023-08-30T05:15:20;3.45;;;2.05;;
64885;SDS011;51514;52.206;5.114;2023-08-30T05:17:46;3.42;;;2.25;;
64885;SDS011;51514;52.206;5.114;2023-08-30T05:20:12;4.03;;;2.50;;
64885;SDS011;51514;52.206;5.114;2023-08-30T05:22:37;2.38;;;2.05;;
64885;SDS011;51514;52.206;5.114;2023-08-30T05:25:03;4.53;;;2.83;;
64885;SDS011;51514;52.206;5.114;2023-08-30T05:27:29;3.75;;;2.15;;
64885;SDS011;51514;52.206;5.114;2023-08-30T05:29:55;3.58;;;2.33;;
64885;SDS011;51514;52.206;5.114;2023-08-30T05:32:21;3.70;;;2.42;;
64885;SDS011;51514;52.206;5.114;2023-08-30T05:34:46;3.08;;;2.20;;
64885;SDS011;51514;52.206;5.114;2023-08-30T05:37:12;3.53;;;2.45;;
64885;SDS011;51514;52.206;5.114;2023-08-30T05:39:37;4.00;;;2.50;;
64885;SDS011;51514;52.206;5.114;2023-08-30T05:42:03;4.55;;;2.42;;
64885;SDS011;51514;52.206;5.114;2023-08-30T05:44:28;4.00;;;2.65;;
64885;SDS011;51514;52.206;5.114;2023-08-30T05:46:54;3.53;;;2.50;;
64885;SDS011;51514;52.206;5.114;2023-08-30T05:49:19;4.68;;;2.20;;
64885;SDS011;51514;52.206;5.114;2023-08-30T05:51:45;3.72;;;2.38;;
64885;SDS011;51514;52.206;5.114;2023-08-30T05:54:10;3.03;;;2.00;;
64885;SDS011;51514;52.206;5.114;2023-08-30T05:56:35;3.17;;;2.45;;
64885;SDS011;51514;52.206;5.114;2023-08-30T05:59:01;3.17;;;2.25;;
64885;SDS011;51514;52.206;5.114;2023-08-30T06:01:26;3.58;;;2.50;;
64885;SDS011;51514;52.206;5.114;2023-08-30T06:03:52;2.83;;;2.10;;
64885;SDS011;51514;52.206;5.114;2023-08-30T06:06:17;2.95;;;2.00;;
64885;SDS011;51514;52.206;5.114;2023-08-30T06:08:43;4.68;;;2.95;;
64885;SDS011;51514;52.206;5.114;2023-08-30T06:11:08;3.85;;;2.42;;
64885;SDS011;51514;52.206;5.114;2023-08-30T06:13:33;2.80;;;2.17;;
64885;SDS011;51514;52.206;5.114;2023-08-30T06:15:59;3.67;;;2.50;;
64885;SDS011;51514;52.206;5.114;2023-08-30T06:18:26;3.08;;;2.25;;
64885;SDS011;51514;52.206;5.114;2023-08-30T06:20:54;3.85;;;2.60;;
64885;SDS011;51514;52.206;5.114;2023-08-30T06:23:20;3.72;;;2.58;;
64885;SDS011;51514;52.206;5.114;2023-08-30T06:25:52;3.15;;;2.22;;
64885;SDS011;51514;52.206;5.114;2023-08-30T06:28:19;3.90;;;2.38;;
64885;SDS011;51514;52.206;5.114;2023-08-30T06:30:44;4.18;;;2.58;;
64885;SDS011;51514;52.206;5.114;2023-08-30T06:33:09;4.40;;;2.72;;
64885;SDS011;51514;52.206;5.114;2023-08-30T06:35:36;4.38;;;2.92;;
64885;SDS011;51514;52.206;5.114;2023-08-30T06:38:04;4.30;;;2.97;;
64885;SDS011;51514;52.206;5.114;2023-08-30T06:40:29;4.07;;;2.60;;
64885;SDS011;51514;52.206;5.114;2023-08-30T06:42:55;5.65;;;2.97;;
64885;SDS011;51514;52.206;5.114;2023-08-30T06:45:20;4.70;;;2.92;;
64885;SDS011;51514;52.206;5.114;2023-08-30T06:47:45;4.28;;;2.50;;
64885;SDS011;51514;52.206;5.114;2023-08-30T06:50:13;4.13;;;2.80;;
64885;SDS011;51514;52.206;5.114;2023-08-30T06:52:38;7.07;;;3.13;;
64885;SDS011;51514;52.206;5.114;2023-08-30T06:55:04;6.63;;;2.95;;
64885;SDS011;51514;52.206;5.114;2023-08-30T06:57:29;6.60;;;3.05;;
64885;SDS011;51514;52.206;5.114;2023-08-30T06:59:55;6.97;;;2.92;;
64885;SDS011;51514;52.206;5.114;2023-08-30T07:02:20;4.28;;;2.92;;
64885;SDS011;51514;52.206;5.114;2023-08-30T07:04:46;4.85;;;2.80;;
64885;SDS011;51514;52.206;5.114;2023-08-30T07:07:11;5.03;;;2.63;;
64885;SDS011;51514;52.206;5.114;2023-08-30T07:09:37;5.68;;;2.90;;
64885;SDS011;51514;52.206;5.114;2023-08-30T07:12:03;5.50;;;3.00;;
64885;SDS011;51514;52.206;5.114;2023-08-30T07:14:28;5.18;;;3.13;;
64885;SDS011;51514;52.206;5.114;2023-08-30T07:16:54;4.40;;;3.08;;
64885;SDS011;51514;52.206;5.114;2023-08-30T07:19:19;6.55;;;3.65;;
64885;SDS011;51514;52.206;5.114;2023-08-30T07:21:45;6.63;;;3.40;;
64885;SDS011;51514;52.206;5.114;2023-08-30T07:24:10;5.55;;;3.05;;
64885;SDS011;51514;52.206;5.114;2023-08-30T07:26:36;5.43;;;3.03;;
64885;SDS011;51514;52.206;5.114;2023-08-30T07:29:02;6.18;;;2.63;;
64885;SDS011;51514;52.206;5.114;2023-08-30T07:31:30;7.55;;;3.70;;
64885;SDS011;51514;52.206;5.114;2023-08-30T07:33:56;5.75;;;2.75;;
64885;SDS011;51514;52.206;5.114;2023-08-30T07:36:23;7.88;;;3.10;;
64885;SDS011;51514;52.206;5.114;2023-08-30T07:38:48;4.95;;;3.00;;
64885;SDS011;51514;52.206;5.114;2023-08-30T07:41:13;5.13;;;2.70;;
64885;SDS011;51514;52.206;5.114;2023-08-30T07:43:39;6.40;;;2.60;;
64885;SDS011;51514;52.206;5.114;2023-08-30T07:46:04;5.97;;;2.65;;
64885;SDS011;51514;52.206;5.114;2023-08-30T07:48:29;5.05;;;2.78;;
64885;SDS011;51514;52.206;5.114;2023-08-30T07:50:55;9.55;;;3.80;;
64885;SDS011;51514;52.206;5.114;2023-08-30T07:53:20;6.53;;;2.72;;
64885;SDS011;51514;52.206;5.114;2023-08-30T07:55:49;6.25;;;3.38;;
64885;SDS011;51514;52.206;5.114;2023-08-30T08:00:40;5.10;;;2.20;;
64885;SDS011;51514;52.206;5.114;2023-08-30T08:03:06;4.97;;;3.05;;
64885;SDS011;51514;52.206;5.114;2023-08-30T08:05:31;4.50;;;2.58;;
64885;SDS011;51514;52.206;5.114;2023-08-30T08:07:59;4.47;;;2.60;;
64885;SDS011;51514;52.206;5.114;2023-08-30T08:10:26;5.82;;;2.78;;
64885;SDS011;51514;52.206;5.114;2023-08-30T08:12:52;4.53;;;2.90;;
64885;SDS011;51514;52.206;5.114;2023-08-30T08:15:17;5.32;;;2.78;;
64885;SDS011;51514;52.206;5.114;2023-08-30T08:17:42;6.07;;;3.63;;
64885;SDS011;51514;52.206;5.114;2023-08-30T08:20:08;4.60;;;3.13;;
64885;SDS011;51514;52.206;5.114;2023-08-30T08:22:33;4.50;;;2.72;;
64885;SDS011;51514;52.206;5.114;2023-08-30T08:24:59;6.22;;;2.95;;
64885;SDS011;51514;52.206;5.114;2023-08-30T08:27:24;4.68;;;2.95;;
64885;SDS011;51514;52.206;5.114;2023-08-30T08:29:50;4.53;;;2.90;;
64885;SDS011;51514;52.206;5.114;2023-08-30T08:32:15;4.20;;;2.95;;
64885;SDS011;51514;52.206;5.114;2023-08-30T08:34:41;4.95;;;2.63;;
64885;SDS011;51514;52.206;5.114;2023-08-30T08:37:06;4.25;;;2.70;;
64885;SDS011;51514;52.206;5.114;2023-08-30T08:39:32;3.85;;;2.60;;
64885;SDS011;51514;52.206;5.114;2023-08-30T08:41:58;5.65;;;2.72;;
64885;SDS011;51514;52.206;5.114;2023-08-30T08:44:24;6.10;;;2.65;;
64885;SDS011;51514;52.206;5.114;2023-08-30T08:46:53;4.28;;;2.78;;
64885;SDS011;51514;52.206;5.114;2023-08-30T08:49:19;4.60;;;2.83;;
64885;SDS011;51514;52.206;5.114;2023-08-30T08:51:45;4.97;;;2.70;;
64885;SDS011;51514;52.206;5.114;2023-08-30T08:54:10;5.28;;;2.80;;
64885;SDS011;51514;52.206;5.114;2023-08-30T08:56:37;4.28;;;2.30;;
64885;SDS011;51514;52.206;5.114;2023-08-30T08:59:06;5.43;;;2.78;;
64885;SDS011;51514;52.206;5.114;2023-08-30T09:01:33;3.83;;;2.47;;
64885;SDS011;51514;52.206;5.114;2023-08-30T09:04:03;5.38;;;2.45;;
64885;SDS011;51514;52.206;5.114;2023-08-30T09:06:30;4.82;;;2.50;;
64885;SDS011;51514;52.206;5.114;2023-08-30T09:08:55;7.40;;;3.17;;
64885;SDS011;51514;52.206;5.114;2023-08-30T09:11:20;6.18;;;2.63;;
64885;SDS011;51514;52.206;5.114;2023-08-30T09:13:46;5.25;;;2.28;;
64885;SDS011;51514;52.206;5.114;2023-08-30T09:16:12;6.65;;;2.40;;
64885;SDS011;51514;52.206;5.114;2023-08-30T09:18:39;5.07;;;2.65;;
64885;SDS011;51514;52.206;5.114;2023-08-30T09:21:10;5.15;;;2.33;;
64885;SDS011;51514;52.206;5.114;2023-08-30T09:23:36;4.47;;;2.50;;
64885;SDS011;51514;52.206;5.114;2023-08-30T09:26:02;5.53;;;2.13;;
64885;SDS011;51514;52.206;5.114;2023-08-30T09:28:29;4.78;;;2.42;;
64885;SDS011;51514;52.206;5.114;2023-08-30T09:30:56;3.75;;;2.10;;
64885;SDS011;51514;52.206;5.114;2023-08-30T09:33:23;3.53;;;2.20;;
64885;SDS011;51514;52.206;5.114;2023-08-30T09:35:58;5.80;;;2.30;;
64885;SDS011;51514;52.206;5.114;2023-08-30T09:38:24;2.97;;;2.00;;
64885;SDS011;51514;52.206;5.114;2023-08-30T09:40:50;4.13;;;2.20;;
64885;SDS011;51514;52.206;5.114;2023-08-30T09:43:19;6.78;;;2.60;;
64885;SDS011;51514;52.206;5.114;2023-08-30T09:45:47;4.43;;;2.50;;
64885;SDS011;51514;52.206;5.114;2023-08-30T09:48:13;3.63;;;2.25;;
64885;SDS011;51514;52.206;5.114;2023-08-30T09:50:39;3.92;;;2.38;;
64885;SDS011;51514;52.206;5.114;2023-08-30T09:53:08;4.03;;;2.60;;
64885;SDS011;51514;52.206;5.114;2023-08-30T09:58:38;2.80;;;2.17;;
64885;SDS011;51514;52.206;5.114;2023-08-30T10:01:05;3.80;;;1.90;;
64885;SDS011;51514;52.206;5.114;2023-08-30T10:03:32;3.70;;;2.40;;
64885;SDS011;51514;52.206;5.114;2023-08-30T10:05:59;4.40;;;2.42;;
64885;SDS011;51514;52.206;5.114;2023-08-30T10:08:28;2.88;;;1.95;;
64885;SDS011;51514;52.206;5.114;2023-08-30T10:10:57;4.22;;;2.30;;
64885;SDS011;51514;52.206;5.114;2023-08-30T10:13:23;9.23;;;2.42;;
64885;SDS011;51514;52.206;5.114;2023-08-30T10:15:50;6.55;;;2.15;;
64885;SDS011;51514;52.206;5.114;2023-08-30T10:18:21;2.70;;;1.90;;
64885;SDS011;51514;52.206;5.114;2023-08-30T10:20:47;3.40;;;1.90;;
64885;SDS011;51514;52.206;5.114;2023-08-30T10:23:14;2.67;;;1.95;;
64885;SDS011;51514;52.206;5.114;2023-08-30T10:25:42;3.70;;;2.42;;
64885;SDS011;51514;52.206;5.114;2023-08-30T10:28:09;3.22;;;2.00;;
64885;SDS011;51514;52.206;5.114;2023-08-30T10:30:36;3.17;;;2.20;;
64885;SDS011;51514;52.206;5.114;2023-08-30T10:33:01;3.53;;;1.85;;
64885;SDS011;51514;52.206;5.114;2023-08-30T10:35:28;3.25;;;2.10;;
64885;SDS011;51514;52.206;5.114;2023-08-30T10:37:58;4.28;;;1.98;;
64885;SDS011;51514;52.206;5.114;2023-08-30T10:40:24;3.67;;;1.88;;
64885;SDS011;51514;52.206;5.114;2023-08-30T10:43:02;2.67;;;1.95;;
64885;SDS011;51514;52.206;5.114;2023-08-30T10:45:28;2.72;;;1.70;;
64885;SDS011;51514;52.206;5.114;2023-08-30T10:47:55;3.75;;;2.22;;
64885;SDS011;51514;52.206;5.114;2023-08-30T10:50:29;3.50;;;1.90;;
64885;SDS011;51514;52.206;5.114;2023-08-30T10:52:59;4.72;;;2.00;;
64885;SDS011;51514;52.206;5.114;2023-08-30T10:58:42;3.50;;;1.50;;
64885;SDS011;51514;52.206;5.114;2023-08-30T11:01:11;4.38;;;2.00;;
64885;SDS011;51514;52.206;5.114;2023-08-30T11:03:38;3.45;;;1.88;;
64885;SDS011;51514;52.206;5.114;2023-08-30T11:06:05;4.05;;;2.13;;
64885;SDS011;51514;52.206;5.114;2023-08-30T11:08:30;3.53;;;1.45;;
64885;SDS011;51514;52.206;5.114;2023-08-30T11:11:05;2.60;;;1.80;;
64885;SDS011;51514;52.206;5.114;2023-08-30T11:13:33;2.50;;;1.67;;
64885;SDS011;51514;52.206;5.114;2023-08-30T11:16:02;3.67;;;1.80;;
64885;SDS011;51514;52.206;5.114;2023-08-30T11:18:36;4.30;;;2.20;;
64885;SDS011;51514;52.206;5.114;2023-08-30T11:21:04;4.90;;;1.95;;
64885;SDS011;51514;52.206;5.114;2023-08-30T11:23:31;2.08;;;1.50;;
64885;SDS011;51514;52.206;5.114;2023-08-30T11:25:56;3.50;;;2.25;;
64885;SDS011;51514;52.206;5.114;2023-08-30T11:28:25;3.03;;;1.83;;
64885;SDS011;51514;52.206;5.114;2023-08-30T11:30:54;4.50;;;2.05;;
64885;SDS011;51514;52.206;5.114;2023-08-30T11:35:45;7.38;;;2.13;;
64885;SDS011;51514;52.206;5.114;2023-08-30T11:38:14;2.85;;;1.80;;
64885;SDS011;51514;52.206;5.114;2023-08-30T11:40:40;4.00;;;2.05;;
64885;SDS011;51514;52.206;5.114;2023-08-30T11:43:06;4.00;;;1.88;;
64885;SDS011;51514;52.206;5.114;2023-08-30T11:45:32;4.38;;;2.10;;
64885;SDS011;51514;52.206;5.114;2023-08-30T11:48:00;3.10;;;1.90;;
64885;SDS011;51514;52.206;5.114;2023-08-30T11:50:26;3.65;;;2.20;;
64885;SDS011;51514;52.206;5.114;2023-08-30T11:52:52;3.97;;;1.98;;
64885;SDS011;51514;52.206;5.114;2023-08-30T11:55:18;3.40;;;1.88;;
64885;SDS011;51514;52.206;5.114;2023-08-30T11:57:49;4.53;;;1.98;;
64885;SDS011;51514;52.206;5.114;2023-08-30T12:00:17;2.28;;;1.60;;
64885;SDS011;51514;52.206;5.114;2023-08-30T12:02:43;5.10;;;1.98;;
64885;SDS011;51514;52.206;5.114;2023-08-30T12:05:11;2.92;;;1.80;;
64885;SDS011;51514;52.206;5.114;2023-08-30T12:07:40;3.28;;;2.00;;
64885;SDS011;51514;52.206;5.114;2023-08-30T12:10:10;3.22;;;1.85;;
64885;SDS011;51514;52.206;5.114;2023-08-30T12:12:36;4.20;;;2.30;;
64885;SDS011;51514;52.206;5.114;2023-08-30T12:15:11;3.25;;;1.95;;
64885;SDS011;51514;52.206;5.114;2023-08-30T12:17:37;3.35;;;2.00;;
64885;SDS011;51514;52.206;5.114;2023-08-30T12:20:03;3.72;;;2.08;;
64885;SDS011;51514;52.206;5.114;2023-08-30T12:22:38;6.40;;;2.17;;
64885;SDS011;51514;52.206;5.114;2023-08-30T12:25:04;2.97;;;1.75;;
64885;SDS011;51514;52.206;5.114;2023-08-30T12:27:41;4.43;;;1.88;;
64885;SDS011;51514;52.206;5.114;2023-08-30T12:30:07;3.75;;;2.15;;
64885;SDS011;51514;52.206;5.114;2023-08-30T12:32:32;6.50;;;2.35;;
64885;SDS011;51514;52.206;5.114;2023-08-30T12:34:58;7.05;;;2.60;;
64885;SDS011;51514;52.206;5.114;2023-08-30T12:37:24;5.53;;;2.17;;
64885;SDS011;51514;52.206;5.114;2023-08-30T12:39:49;4.45;;;1.60;;
64885;SDS011;51514;52.206;5.114;2023-08-30T12:42:14;4.38;;;2.10;;
64885;SDS011;51514;52.206;5.114;2023-08-30T12:44:40;3.80;;;1.85;;
64885;SDS011;51514;52.206;5.114;2023-08-30T12:47:05;3.78;;;1.75;;
64885;SDS011;51514;52.206;5.114;2023-08-30T12:49:30;4.22;;;1.73;;
64885;SDS011;51514;52.206;5.114;2023-08-30T12:51:56;3.13;;;1.75;;
64885;SDS011;51514;52.206;5.114;2023-08-30T12:54:22;3.33;;;1.80;;
64885;SDS011;51514;52.206;5.114;2023-08-30T12:56:47;3.35;;;1.88;;
64885;SDS011;51514;52.206;5.114;2023-08-30T12:59:13;3.13;;;1.92;;
64885;SDS011;51514;52.206;5.114;2023-08-30T13:01:38;3.28;;;1.65;;
64885;SDS011;51514;52.206;5.114;2023-08-30T13:04:03;3.33;;;1.63;;
64885;SDS011;51514;52.206;5.114;2023-08-30T13:06:29;3.15;;;1.80;;
64885;SDS011;51514;52.206;5.114;2023-08-30T13:08:54;3.83;;;2.15;;
64885;SDS011;51514;52.206;5.114;2023-08-30T13:11:19;2.65;;;1.83;;
64885;SDS011;51514;52.206;5.114;2023-08-30T13:13:45;3.95;;;1.88;;
64885;SDS011;51514;52.206;5.114;2023-08-30T13:16:10;3.90;;;1.70;;
64885;SDS011;51514;52.206;5.114;2023-08-30T13:18:35;3.40;;;1.85;;
64885;SDS011;51514;52.206;5.114;2023-08-30T13:21:01;5.03;;;1.90;;
64885;SDS011;51514;52.206;5.114;2023-08-30T13:23:26;3.45;;;1.98;;
64885;SDS011;51514;52.206;5.114;2023-08-30T13:25:51;2.92;;;1.70;;
64885;SDS011;51514;52.206;5.114;2023-08-30T13:28:17;2.88;;;1.77;;
64885;SDS011;51514;52.206;5.114;2023-08-30T13:30:46;3.30;;;1.90;;
64885;SDS011;51514;52.206;5.114;2023-08-30T13:33:11;4.57;;;1.95;;
64885;SDS011;51514;52.206;5.114;2023-08-30T13:35:40;3.80;;;1.80;;
64885;SDS011;51514;52.206;5.114;2023-08-30T13:38:05;2.63;;;1.70;;
64885;SDS011;51514;52.206;5.114;2023-08-30T13:40:30;2.65;;;1.30;;
64885;SDS011;51514;52.206;5.114;2023-08-30T13:42:56;3.47;;;1.88;;
64885;SDS011;51514;52.206;5.114;2023-08-30T13:45:21;4.35;;;1.88;;
64885;SDS011;51514;52.206;5.114;2023-08-30T13:47:46;3.45;;;1.90;;
64885;SDS011;51514;52.206;5.114;2023-08-30T13:50:12;4.72;;;1.70;;
64885;SDS011;51514;52.206;5.114;2023-08-30T13:52:38;3.97;;;1.92;;
64885;SDS011;51514;52.206;5.114;2023-08-30T13:55:04;7.68;;;1.92;;
64885;SDS011;51514;52.206;5.114;2023-08-30T13:57:30;2.95;;;1.48;;
64885;SDS011;51514;52.206;5.114;2023-08-30T13:59:55;5.03;;;2.10;;
64885;SDS011;51514;52.206;5.114;2023-08-30T14:02:20;3.47;;;1.58;;
64885;SDS011;51514;52.206;5.114;2023-08-30T14:04:46;5.32;;;2.13;;
64885;SDS011;51514;52.206;5.114;2023-08-30T14:07:11;4.30;;;1.88;;
64885;SDS011;51514;52.206;5.114;2023-08-30T14:09:37;4.13;;;2.00;;
64885;SDS011;51514;52.206;5.114;2023-08-30T14:12:02;2.22;;;1.63;;
64885;SDS011;51514;52.206;5.114;2023-08-30T14:14:29;3.85;;;1.70;;
64885;SDS011;51514;52.206;5.114;2023-08-30T14:16:58;5.20;;;1.83;;
64885;SDS011;51514;52.206;5.114;2023-08-30T14:20:07;2.35;;;1.60;;
64885;SDS011;51514;52.206;5.114;2023-08-30T14:22:32;3.47;;;1.60;;
64885;SDS011;51514;52.206;5.114;2023-08-30T14:24:58;5.03;;;2.05;;
64885;SDS011;51514;52.206;5.114;2023-08-30T14:27:23;3.17;;;1.58;;
64885;SDS011;51514;52.206;5.114;2023-08-30T14:29:49;4.93;;;1.92;;
64885;SDS011;51514;52.206;5.114;2023-08-30T14:32:14;3.22;;;1.75;;
64885;SDS011;51514;52.206;5.114;2023-08-30T14:34:39;3.58;;;1.90;;
64885;SDS011;51514;52.206;5.114;2023-08-30T14:37:05;5.85;;;2.25;;
64885;SDS011;51514;52.206;5.114;2023-08-30T14:39:30;2.30;;;1.52;;
64885;SDS011;51514;52.206;5.114;2023-08-30T14:41:55;3.45;;;1.75;;
64885;SDS011;51514;52.206;5.114;2023-08-30T14:44:21;3.15;;;1.77;;
64885;SDS011;51514;52.206;5.114;2023-08-30T14:46:46;4.80;;;1.90;;
64885;SDS011;51514;52.206;5.114;2023-08-30T14:49:12;2.80;;;1.73;;
64885;SDS011;51514;52.206;5.114;2023-08-30T14:51:37;2.72;;;1.33;;
64885;SDS011;51514;52.206;5.114;2023-08-30T14:54:03;2.83;;;1.83;;
64885;SDS011;51514;52.206;5.114;2023-08-30T14:56:28;4.07;;;1.60;;
64885;SDS011;51514;52.206;5.114;2023-08-30T14:58:54;4.05;;;1.80;;
64885;SDS011;51514;52.206;5.114;2023-08-30T15:01:20;3.33;;;1.67;;